KMGY/MGY METAR and TAF weather

Enter ICAO airport designator
Station Type Date Time Source
KMGY METAR 2020/10/20 17:53 UTC NOAA

KMGY 201753Z AUTO 06008KT 5SM BR OVC006 11/10 A3018 RMK AO2 SLP222 60001 T01110100 10117 20089 58011


Station Type Date Time Source
KMGY Decoded METAR 2020/10/20 17:53 UTC NOAA

DAYTON WRIGHT BROTHERS AIRPORT , OH, United States (KMGY) 39-36N 84-14W 289M
Oct 20, 2020 - 01:53 PM EDT / 2020.10.20 1753 UTC
Wind: from the ENE (060 degrees) at 9 MPH (8 KT):0
Visibility: 5 mile(s):0
Sky conditions: overcast
Weather: mist
Temperature: 52.0 F (11.1 C)
Dew Point: 50.0 F (10.0 C)
Relative Humidity: 92%
Pressure (altimeter): 30.18 in. Hg (1022 hPa)
Pressure tendency: 0.03 inches (1.1 hPa) lower than three hours ago
ob: KMGY 201753Z AUTO 06008KT 5SM BR OVC006 11/10 A3018 RMK AO2 SLP222 60001 T01110100 10117 20089 58011
cycle: 18

Station Type Date Time Source
KMGY TAF UTC NOAA

Error!

Example: see airport list